Time;durP1;ratioP1;P1;durP2;ratioP2;P2;SDS_P1;SDS_P2;PMS_P1;PMS_P2;Temp;Humidity;BMP_temperature;BMP_pressure;BME280_temperature;BME280_humidity;BME280_pressure;Samples;Min_cycle;Max_cycle;Signal;HPM_P1;HPM_P2
2023/04/05 00:01:12;;;;;;;5.57;3.13;;;4.60;96.20;;;;;;5001735;28;20046;-86
2023/04/05 00:03:39;;;;;;;6.27;3.00;;;4.60;96.40;;;;;;4998444;28;20077;-86
2023/04/05 00:06:06;;;;;;;6.47;3.40;;;4.60;97.30;;;;;;4998263;28;20440;-86
2023/04/05 00:08:32;;;;;;;6.30;3.10;;;4.50;97.80;;;;;;4997874;28;20038;-86
2023/04/05 00:10:57;;;;;;;5.80;3.17;;;4.50;98.10;;;;;;4998064;28;20042;-86
2023/04/05 00:13:24;;;;;;;5.07;3.40;;;4.40;98.20;;;;;;4999466;28;20030;-86
2023/04/05 00:15:50;;;;;;;5.10;3.20;;;4.40;98.40;;;;;;4999855;28;20031;-85
2023/04/05 00:18:20;;;;;;;5.07;3.03;;;4.30;99.10;;;;;;4998555;28;20091;-85
2023/04/05 00:20:50;;;;;;;5.80;3.37;;;4.30;99.60;;;;;;4999387;28;20027;-86
2023/04/05 00:23:20;;;;;;;4.30;3.10;;;4.20;99.90;;;;;;4998980;28;20030;-84
2023/04/05 00:25:45;;;;;;;7.83;3.83;;;4.10;99.90;;;;;;4998005;28;20097;-84
2023/04/05 00:28:12;;;;;;;5.63;3.30;;;4.00;99.40;;;;;;4998157;28;20064;-81
2023/04/05 00:30:38;;;;;;;8.37;3.47;;;4.00;99.40;;;;;;4996895;28;20468;-85
2023/04/05 00:33:04;;;;;;;5.57;3.67;;;4.00;99.50;;;;;;4998314;28;20071;-84
2023/04/05 00:35:29;;;;;;;4.63;3.17;;;4.10;98.80;;;;;;4996333;28;20019;-83
2023/04/05 00:37:55;;;;;;;4.20;2.87;;;4.00;98.80;;;;;;4997847;28;20379;-83
2023/04/05 00:40:24;;;;;;;5.93;3.53;;;4.10;98.80;;;;;;4997621;28;20112;-83
2023/04/05 00:42:50;;;;;;;7.50;3.30;;;4.10;99.30;;;;;;4996394;28;20061;-82
2023/04/05 00:45:16;;;;;;;7.20;3.70;;;4.20;99.60;;;;;;4995654;28;20031;-82
2023/04/05 00:47:42;;;;;;;6.83;3.27;;;4.20;99.80;;;;;;4996141;28;20033;-83
2023/04/05 00:50:09;;;;;;;6.83;3.50;;;4.20;99.90;;;;;;4995507;28;20031;-83
2023/04/05 00:52:36;;;;;;;7.70;3.40;;;4.30;99.90;;;;;;4994895;28;20073;-83
2023/04/05 00:55:04;;;;;;;7.20;3.90;;;4.30;99.90;;;;;;4996532;28;20026;-83
2023/04/05 00:57:31;;;;;;;6.67;3.70;;;4.20;99.90;;;;;;4995126;28;20764;-83
2023/04/05 01:00:00;;;;;;;8.97;3.17;;;4.10;99.90;;;;;;4996624;28;20142;-82
2023/04/05 01:02:38;;;;;;;6.47;3.07;;;4.10;99.40;;;;;;4994833;28;20030;-82
2023/04/05 01:05:12;;;;;;;8.17;2.87;;;4.10;99.60;;;;;;4995757;28;20092;-82
2023/04/05 01:07:48;;;;;;;4.33;2.57;;;4.10;99.90;;;;;;4995420;28;20034;-82
2023/04/05 01:10:19;;;;;;;7.53;3.40;;;4.10;99.90;;;;;;4995709;28;20057;-80
2023/04/05 01:12:45;;;;;;;5.90;3.15;;;4.00;99.90;;;;;;4995885;28;20048;-84
2023/04/05 01:15:11;;;;;;;5.07;2.97;;;4.00;99.90;;;;;;4996038;28;20480;-82
2023/04/05 01:17:38;;;;;;;8.67;3.50;;;4.10;99.90;;;;;;4995530;28;20034;-85
2023/04/05 01:20:10;;;;;;;4.43;3.20;;;4.00;99.90;;;;;;4995462;28;20468;-85
2023/04/05 01:23:21;;;;;;;5.97;2.90;;;4.00;99.90;;;;;;4995988;28;20026;-85
2023/04/05 01:26:05;;;;;;;4.63;2.90;;;4.00;99.90;;;;;;4963510;28;20395;-86
2023/04/05 01:29:09;;;;;;;5.30;3.20;;;4.00;99.90;;;;;;4995630;28;20046;-84
2023/04/05 01:32:07;;;;;;;7.37;3.60;;;4.00;99.90;;;;;;4996406;28;20014;-85
2023/04/05 01:34:55;;;;;;;4.27;3.00;;;4.00;99.90;;;;;;4996001;28;20033;-84
2023/04/05 01:37:26;;;;;;;7.13;3.23;;;4.00;99.90;;;;;;4995776;28;20121;-84
2023/04/05 01:39:52;;;;;;;8.57;3.97;;;3.80;99.90;;;;;;4996487;28;20034;-84
2023/04/05 01:42:24;;;;;;;5.73;3.10;;;3.70;99.90;;;;;;4995284;28;20046;-84
2023/04/05 01:44:50;;;;;;;7.65;4.00;;;3.60;99.90;;;;;;4996426;28;20033;-85
2023/04/05 01:47:15;;;;;;;7.50;3.60;;;3.60;99.90;;;;;;4997327;28;20038;-81
2023/04/05 01:49:41;;;;;;;6.00;3.67;;;3.70;99.90;;;;;;4996378;28;20030;-84
2023/04/05 01:52:06;;;;;;;4.90;2.90;;;3.60;99.90;;;;;;4997289;28;20031;-84
2023/04/05 01:54:32;;;;;;;7.67;3.30;;;3.60;99.90;;;;;;4996078;28;20802;-85
2023/04/05 01:56:57;;;;;;;4.73;3.10;;;3.60;99.90;;;;;;4997168;28;20030;-83
2023/04/05 01:59:23;;;;;;;6.27;2.90;;;3.50;99.90;;;;;;4996087;28;20086;-84
2023/04/05 02:01:49;;;;;;;7.97;3.30;;;3.50;99.90;;;;;;4995729;28;20514;-84
2023/04/05 02:04:15;;;;;;;6.53;3.20;;;3.50;99.90;;;;;;4995508;28;20058;-82
2023/04/05 02:06:41;;;;;;;6.97;3.23;;;3.50;99.90;;;;;;4994146;28;20038;-84
2023/04/05 02:09:06;;;;;;;5.27;3.30;;;3.50;99.90;;;;;;4994214;28;20025;-84
2023/04/05 02:11:32;;;;;;;6.20;3.40;;;3.50;99.90;;;;;;4993880;28;20070;-84
2023/04/05 02:13:57;;;;;;;8.77;3.50;;;3.40;99.90;;;;;;4994197;28;20026;-84
2023/04/05 02:16:24;;;;;;;6.40;3.97;;;3.40;99.90;;;;;;4994524;28;20026;-83
2023/04/05 02:18:50;;;;;;;7.57;3.17;;;3.40;99.90;;;;;;4995711;28;20022;-84
2023/04/05 02:21:16;;;;;;;7.20;3.70;;;3.30;99.90;;;;;;4994776;28;20384;-82
2023/04/05 02:23:42;;;;;;;5.13;2.93;;;3.20;99.90;;;;;;4995880;28;20026;-83
2023/04/05 02:26:08;;;;;;;5.10;3.33;;;3.30;99.90;;;;;;4995593;28;20018;-84
2023/04/05 02:28:34;;;;;;;8.23;3.77;;;3.20;99.90;;;;;;4995505;28;20061;-84
2023/04/05 02:30:59;;;;;;;6.07;3.57;;;3.30;99.90;;;;;;4996868;28;20030;-84
2023/04/05 02:33:26;;;;;;;5.37;3.27;;;3.20;99.90;;;;;;4995509;28;20034;-83
2023/04/05 02:35:52;;;;;;;8.00;3.53;;;3.20;99.90;;;;;;4994714;28;20065;-84
2023/04/05 02:38:18;;;;;;;8.30;3.83;;;3.30;99.90;;;;;;4994691;28;20100;-82
2023/04/05 02:40:50;;;;;;;5.37;3.50;;;3.30;99.90;;;;;;4994661;28;20034;-83
2023/04/05 02:43:15;;;;;;;;;;;3.20;99.90;;;;;;4994915;28;20065;-84
2023/04/05 02:45:41;;;;;;;5.93;3.80;;;3.20;99.90;;;;;;4994694;28;19909;-83
2023/04/05 02:48:06;;;;;;;4.57;3.40;;;3.30;99.90;;;;;;4993576;28;20050;-83
2023/04/05 02:50:32;;;;;;;6.33;3.53;;;3.30;99.90;;;;;;4993043;28;20037;-83
2023/04/05 02:52:58;;;;;;;6.50;3.63;;;3.20;99.90;;;;;;4994270;28;20027;-83
2023/04/05 02:55:23;;;;;;;6.63;3.23;;;3.20;99.90;;;;;;4994484;28;20022;-83
2023/04/05 02:57:49;;;;;;;5.70;3.57;;;3.10;99.90;;;;;;4993461;28;20490;-83
2023/04/05 03:00:15;;;;;;;6.63;3.50;;;3.20;99.90;;;;;;4995054;28;20061;-83
2023/04/05 03:02:41;;;;;;;6.17;3.60;;;3.10;99.90;;;;;;4993505;28;20038;-83
2023/04/05 03:05:09;;;;;;;5.53;3.17;;;3.20;99.90;;;;;;4996125;28;20033;-83
2023/04/05 03:07:35;;;;;;;7.23;3.80;;;3.10;99.90;;;;;;4996401;28;20061;-84
2023/04/05 03:10:01;;;;;;;5.83;3.40;;;3.10;99.90;;;;;;5000688;28;20030;-84
2023/04/05 03:12:27;;;;;;;5.20;3.40;;;3.10;99.90;;;;;;4996754;28;20057;-86
2023/04/05 03:14:52;;;;;;;6.30;3.53;;;3.10;99.90;;;;;;4998471;28;20031;-87
2023/04/05 03:17:18;;;;;;;6.47;3.50;;;3.10;99.90;;;;;;4998566;28;20034;-84
2023/04/05 03:19:44;;;;;;;5.87;3.53;;;3.00;99.90;;;;;;4996732;28;20027;-88
2023/04/05 03:22:10;;;;;;;12.70;5.77;;;3.00;99.90;;;;;;4997358;28;20030;-88
2023/04/05 03:24:35;;;;;;;9.37;3.87;;;2.90;99.90;;;;;;4996916;28;20173;-85
2023/04/05 03:27:03;;;;;;;7.20;4.17;;;2.80;99.90;;;;;;4998285;28;20065;-85
2023/04/05 03:29:29;;;;;;;4.73;3.47;;;2.80;99.90;;;;;;4996580;28;20022;-83
2023/04/05 03:31:56;;;;;;;6.93;3.77;;;2.80;99.90;;;;;;4998138;28;20026;-84
2023/04/05 03:34:27;;;;;;;7.87;3.93;;;2.70;99.90;;;;;;4997795;28;20369;-82
2023/04/05 03:36:53;;;;;;;6.97;3.87;;;2.80;99.90;;;;;;4997417;28;20031;-83
2023/04/05 03:39:19;;;;;;;7.87;3.63;;;2.80;99.90;;;;;;4998019;28;20252;-83
2023/04/05 03:41:44;;;;;;;5.07;3.47;;;2.80;99.90;;;;;;4997287;28;20097;-83
2023/04/05 03:44:10;;;;;;;6.87;3.47;;;2.70;99.90;;;;;;4996856;28;20030;-83
2023/04/05 03:46:36;;;;;;;8.63;3.73;;;2.60;99.90;;;;;;4996224;28;20060;-82
2023/04/05 03:49:02;;;;;;;6.20;3.27;;;2.60;99.90;;;;;;4997482;28;20448;-82
2023/04/05 03:51:28;;;;;;;4.77;3.50;;;2.60;99.90;;;;;;4995713;28;20117;-83
2023/04/05 03:53:54;;;;;;;4.30;3.20;;;2.60;99.90;;;;;;4997606;28;20114;-82
2023/04/05 03:56:20;;;;;;;6.07;3.40;;;2.60;99.90;;;;;;4997892;28;20024;-83
2023/04/05 03:58:45;;;;;;;6.43;3.10;;;2.60;99.90;;;;;;4996337;28;20062;-83
2023/04/05 04:01:12;;;;;;;6.00;2.97;;;2.50;99.90;;;;;;4987737;28;20060;-84
2023/04/05 04:03:38;;;;;;;6.87;3.20;;;2.50;99.90;;;;;;4977820;28;20377;-84
2023/04/05 04:06:04;;;;;;;7.23;3.37;;;2.50;99.90;;;;;;4976987;28;20038;-82
2023/04/05 04:08:30;;;;;;;7.70;3.47;;;2.50;99.90;;;;;;4976427;28;20031;-82
2023/04/05 04:10:56;;;;;;;5.70;3.37;;;2.50;99.90;;;;;;4993323;28;20047;-82
2023/04/05 04:13:21;;;;;;;5.73;3.47;;;2.40;99.90;;;;;;4977852;28;20039;-79
2023/04/05 04:15:47;;;;;;;5.70;3.20;;;2.40;99.90;;;;;;4979230;28;20034;-83
2023/04/05 04:18:12;;;;;;;5.13;3.33;;;2.30;99.90;;;;;;4996040;28;20030;-82
2023/04/05 04:20:38;;;;;;;6.70;3.50;;;2.30;99.90;;;;;;4993073;28;20504;-84
2023/04/05 04:23:05;;;;;;;5.53;3.37;;;2.30;99.90;;;;;;4994831;28;20027;-83
2023/04/05 04:25:31;;;;;;;5.37;3.20;;;2.30;99.90;;;;;;4975905;28;20019;-81
2023/04/05 04:27:57;;;;;;;9.47;3.50;;;2.30;99.90;;;;;;4976749;28;20027;-83
2023/04/05 04:30:24;;;;;;;6.63;3.37;;;2.20;99.90;;;;;;4977438;28;20057;-83
2023/04/05 04:32:53;;;;;;;4.83;3.20;;;2.20;99.90;;;;;;4977649;28;20023;-84
2023/04/05 04:35:24;;;;;;;6.87;3.60;;;2.10;99.90;;;;;;4977889;28;20053;-83
2023/04/05 04:37:53;;;;;;;7.87;3.97;;;2.10;99.90;;;;;;4987038;28;20031;-85
2023/04/05 04:40:20;;;;;;;6.10;3.27;;;2.10;99.90;;;;;;4992867;28;20065;-85
2023/04/05 04:42:46;;;;;;;5.97;3.27;;;2.10;99.90;;;;;;4995544;28;20522;-85
2023/04/05 04:45:16;;;;;;;6.90;3.70;;;2.10;99.90;;;;;;4995776;28;20030;-86
2023/04/05 04:47:43;;;;;;;5.23;3.60;;;2.20;99.90;;;;;;4973908;28;20038;-88
2023/04/05 04:50:09;;;;;;;7.03;3.33;;;2.20;99.90;;;;;;4976786;28;20034;-85
2023/04/05 04:52:35;;;;;;;7.93;3.53;;;2.20;99.90;;;;;;4977406;28;20042;-85
2023/04/05 04:55:04;;;;;;;8.00;3.67;;;2.10;99.90;;;;;;4995566;28;20022;-90
2023/04/05 04:57:30;;;;;;;5.03;3.50;;;2.10;99.90;;;;;;4994974;28;20041;-87
2023/04/05 04:59:55;;;;;;;5.60;3.30;;;2.00;99.90;;;;;;4996439;28;20026;-84
2023/04/05 05:02:27;;;;;;;6.37;3.20;;;2.00;99.90;;;;;;4995453;28;20030;-85
2023/04/05 05:04:53;;;;;;;6.60;3.80;;;2.00;99.90;;;;;;5011764;28;20440;-85
2023/04/05 05:07:19;;;;;;;5.57;3.40;;;2.10;99.90;;;;;;4995974;28;20058;-82
2023/04/05 05:09:46;;;;;;;6.83;3.20;;;2.00;99.90;;;;;;4994907;28;20033;-89
2023/04/05 05:12:12;;;;;;;5.23;3.20;;;2.00;99.90;;;;;;4996195;28;20037;-87
2023/04/05 05:14:38;;;;;;;7.33;3.27;;;2.00;99.90;;;;;;4995855;28;20109;-88
2023/04/05 05:17:05;;;;;;;6.77;3.50;;;2.00;99.90;;;;;;4995212;28;20033;-88
2023/04/05 05:19:30;;;;;;;6.07;3.13;;;2.00;99.90;;;;;;4995501;28;20019;-85
2023/04/05 05:21:56;;;;;;;6.10;3.13;;;2.00;99.90;;;;;;4995984;28;20387;-85
2023/04/05 05:24:22;;;;;;;6.57;3.13;;;2.00;99.90;;;;;;4996002;28;20101;-88
2023/04/05 05:26:47;;;;;;;4.53;3.03;;;2.00;99.90;;;;;;4994612;28;20076;-87
2023/04/05 05:29:13;;;;;;;7.37;3.10;;;2.00;99.90;;;;;;4995223;28;20034;-85
2023/04/05 05:31:39;;;;;;;5.50;3.10;;;2.10;99.90;;;;;;4994345;28;20034;-86
2023/04/05 05:34:05;;;;;;;9.63;3.10;;;2.10;99.90;;;;;;4995004;28;20031;-84
2023/04/05 05:36:31;;;;;;;5.93;2.93;;;2.00;99.90;;;;;;4993648;28;20038;-85
2023/04/05 05:38:56;;;;;;;6.40;3.30;;;2.00;99.90;;;;;;4984976;28;20022;-83
2023/04/05 05:41:23;;;;;;;5.83;3.23;;;2.00;99.90;;;;;;4994284;28;20074;-85
2023/04/05 05:43:49;;;;;;;4.93;3.47;;;2.10;99.90;;;;;;4994575;28;20045;-86
2023/04/05 05:46:14;;;;;;;8.37;3.57;;;2.00;99.90;;;;;;4994035;28;20026;-83
2023/04/05 05:48:40;;;;;;;6.53;3.47;;;2.00;99.90;;;;;;4993248;28;20022;-84
2023/04/05 05:51:09;;;;;;;9.53;3.77;;;2.00;99.90;;;;;;4995407;28;20037;-84
2023/04/05 05:53:36;;;;;;;3.90;3.10;;;2.10;99.90;;;;;;4992964;28;20081;-82
2023/04/05 05:56:02;;;;;;;8.27;3.60;;;2.10;99.90;;;;;;4994842;28;20053;-83
2023/04/05 05:58:27;;;;;;;4.63;3.50;;;2.10;99.90;;;;;;5009722;28;20468;-83
2023/04/05 06:00:55;;;;;;;7.13;3.60;;;2.20;99.90;;;;;;4993226;28;20030;-83
2023/04/05 06:03:21;;;;;;;6.23;3.50;;;2.10;99.90;;;;;;4992687;28;20026;-83
2023/04/05 06:05:52;;;;;;;8.13;3.40;;;2.20;99.90;;;;;;4994312;28;20391;-82
2023/04/05 06:08:17;;;;;;;6.30;3.20;;;2.30;99.90;;;;;;4993243;28;20085;-83
2023/04/05 06:10:43;;;;;;;6.17;3.20;;;2.30;99.90;;;;;;4993239;28;20078;-86
2023/04/05 06:13:09;;;;;;;5.97;3.20;;;2.30;99.90;;;;;;4982751;28;20037;-85
2023/04/05 06:15:35;;;;;;;8.47;3.43;;;2.30;99.90;;;;;;4999379;28;20153;-85
2023/04/05 06:18:01;;;;;;;8.20;3.57;;;2.30;99.90;;;;;;4990398;28;20041;-84
2023/04/05 06:20:26;;;;;;;6.20;3.07;;;2.40;99.90;;;;;;5003390;28;20486;-85
2023/04/05 06:22:52;;;;;;;4.87;3.07;;;2.50;99.90;;;;;;4993297;28;20054;-86
2023/04/05 06:25:17;;;;;;;4.77;3.10;;;2.40;99.90;;;;;;4989228;28;20023;-86
2023/04/05 06:27:43;;;;;;;5.53;3.10;;;2.50;99.90;;;;;;4999403;28;20026;-83
2023/04/05 06:30:09;;;;;;;7.23;3.00;;;2.60;99.90;;;;;;5006018;28;20026;-82
2023/04/05 06:32:35;;;;;;;7.23;3.17;;;2.60;99.90;;;;;;4992879;28;20026;-85
2023/04/05 06:35:02;;;;;;;5.80;3.23;;;2.70;99.90;;;;;;5009978;28;20032;-86
2023/04/05 06:37:29;;;;;;;3.73;2.83;;;2.80;99.90;;;;;;4992923;28;20030;-85
2023/04/05 06:39:54;;;;;;;6.60;3.13;;;2.80;99.90;;;;;;5009493;28;20407;-85
2023/04/05 06:42:20;;;;;;;9.30;3.57;;;2.80;99.90;;;;;;4992460;28;20057;-86
2023/04/05 06:44:46;;;;;;;5.80;3.10;;;2.90;99.90;;;;;;5008633;28;20026;-87
2023/04/05 06:47:11;;;;;;;8.10;3.07;;;2.90;99.90;;;;;;4993676;28;20031;-84
2023/04/05 06:49:37;;;;;;;5.07;2.77;;;3.00;99.90;;;;;;4993063;28;20022;-84
2023/04/05 06:52:04;;;;;;;4.30;2.87;;;3.00;99.90;;;;;;4992256;28;20030;-86
2023/04/05 06:54:32;;;;;;;8.17;3.37;;;3.10;99.90;;;;;;4992750;28;20030;-85
2023/04/05 06:56:57;;;;;;;8.50;3.63;;;3.10;99.90;;;;;;4993432;28;20030;-88
2023/04/05 06:59:23;;;;;;;5.47;3.40;;;3.10;99.90;;;;;;4992953;28;20081;-83
2023/04/05 07:01:48;;;;;;;6.53;3.20;;;3.20;99.90;;;;;;4996877;28;20047;-82
2023/04/05 07:04:14;;;;;;;10.27;5.33;;;3.30;99.90;;;;;;4985688;28;20070;-84
2023/04/05 07:06:39;;;;;;;5.40;3.53;;;3.30;99.90;;;;;;4983188;28;20472;-84
2023/04/05 07:09:06;;;;;;;5.93;3.70;;;3.40;99.90;;;;;;4983357;28;20037;-83
2023/04/05 07:11:31;;;;;;;7.10;3.47;;;3.40;99.90;;;;;;5000360;28;20084;-85
2023/04/05 07:13:58;;;;;;;6.87;3.40;;;3.40;99.90;;;;;;4990494;28;20158;-80
2023/04/05 07:16:24;;;;;;;5.27;3.30;;;3.50;99.90;;;;;;4992809;28;20037;-87
2023/04/05 07:18:50;;;;;;;5.97;3.23;;;3.40;99.90;;;;;;4990952;28;20027;-85
2023/04/05 07:21:16;;;;;;;5.30;3.53;;;3.50;99.90;;;;;;4992632;28;20030;-85
2023/04/05 07:23:41;;;;;;;4.53;3.13;;;3.60;99.90;;;;;;4992170;28;20038;-83
2023/04/05 07:26:07;;;;;;;4.93;3.30;;;3.60;99.90;;;;;;4992090;28;20057;-87
2023/04/05 07:28:34;;;;;;;5.50;3.40;;;3.60;99.90;;;;;;4992136;28;20517;-86
2023/04/05 07:31:00;;;;;;;4.63;2.80;;;3.70;99.90;;;;;;4992273;28;20042;-87
2023/04/05 07:33:26;;;;;;;6.40;3.33;;;3.80;99.90;;;;;;4993685;28;20026;-86
2023/04/05 07:35:55;;;;;;;5.23;3.10;;;3.80;99.90;;;;;;4992097;28;20185;-86
2023/04/05 07:38:21;;;;;;;4.67;3.30;;;3.90;99.90;;;;;;4983796;28;20031;-87
2023/04/05 07:40:48;;;;;;;8.93;3.10;;;3.90;99.90;;;;;;4989288;28;20388;-85
2023/04/05 07:43:14;;;;;;;8.23;3.10;;;3.90;99.90;;;;;;4990485;28;20520;-87
2023/04/05 07:45:40;;;;;;;5.77;3.50;;;4.00;99.90;;;;;;4986180;28;20031;-84
2023/04/05 07:48:06;;;;;;;4.87;3.07;;;4.00;99.90;;;;;;4987474;28;20023;-85
2023/04/05 07:50:33;;;;;;;6.13;3.00;;;4.00;99.90;;;;;;4992182;28;20030;-83
2023/04/05 07:52:59;;;;;;;7.87;3.63;;;4.00;99.90;;;;;;4993706;28;20057;-87
2023/04/05 07:55:26;;;;;;;6.53;3.20;;;4.00;99.90;;;;;;4993384;28;20042;-85
2023/04/05 07:57:52;;;;;;;6.87;3.40;;;4.10;99.90;;;;;;4995544;28;20026;-85
2023/04/05 08:00:18;;;;;;;6.93;3.50;;;4.10;99.90;;;;;;4997506;28;20026;-87
2023/04/05 08:02:44;;;;;;;10.03;3.50;;;4.20;99.90;;;;;;4996969;28;20098;-90
2023/04/05 08:05:10;;;;;;;6.17;3.37;;;4.30;99.90;;;;;;4996254;28;20102;-84
2023/04/05 08:07:36;;;;;;;4.93;3.03;;;4.30;99.90;;;;;;4996721;28;20478;-85
2023/04/05 08:10:02;;;;;;;5.17;2.97;;;4.40;99.90;;;;;;4993721;28;20037;-86
2023/04/05 08:12:30;;;;;;;6.23;3.23;;;4.40;99.90;;;;;;4986595;28;20057;-85
2023/04/05 08:14:55;;;;;;;4.97;3.07;;;4.40;99.90;;;;;;4986183;28;20065;-84
2023/04/05 08:17:21;;;;;;;5.63;2.90;;;4.40;99.30;;;;;;4993052;28;20357;-86
2023/04/05 08:19:48;;;;;;;4.77;3.17;;;4.50;99.80;;;;;;4996556;28;20104;-83
2023/04/05 08:22:15;;;;;;;6.37;3.30;;;4.60;99.50;;;;;;4996308;28;20034;-84
2023/04/05 08:24:41;;;;;;;6.13;3.07;;;4.60;99.20;;;;;;4995557;28;20030;-84
2023/04/05 08:27:06;;;;;;;3.97;3.13;;;4.70;98.70;;;;;;4993006;28;20173;-84
2023/04/05 08:29:32;;;;;;;5.50;2.97;;;4.70;98.20;;;;;;4994843;28;20045;-81
2023/04/05 08:31:57;;;;;;;5.00;2.70;;;4.70;98.10;;;;;;4995415;28;20472;-82
2023/04/05 08:34:23;;;;;;;5.33;3.20;;;4.80;98.90;;;;;;4996032;28;20098;-83
2023/04/05 08:36:48;;;;;;;6.80;2.90;;;4.90;99.30;;;;;;4995371;28;20026;-83
2023/04/05 08:39:14;;;;;;;8.20;3.97;;;4.90;97.70;;;;;;4997092;28;20467;-83
2023/04/05 08:41:49;;;;;;;5.13;2.90;;;4.90;97.70;;;;;;4996083;28;20050;-83
2023/04/05 08:44:15;;;;;;;5.60;3.07;;;5.00;97.30;;;;;;4996094;28;20541;-83
2023/04/05 08:46:43;;;;;;;6.43;3.60;;;5.00;96.90;;;;;;4996091;28;20395;-83
2023/04/05 08:49:10;;;;;;;5.13;3.10;;;5.10;97.20;;;;;;4996807;28;20034;-83
2023/04/05 08:51:38;;;;;;;6.67;3.13;;;5.10;97.20;;;;;;4994961;28;20037;-82
2023/04/05 08:54:03;;;;;;;5.67;3.20;;;5.10;96.70;;;;;;4996706;28;20027;-83
2023/04/05 08:56:34;;;;;;;5.67;2.97;;;5.10;96.90;;;;;;4996838;28;20034;-83
2023/04/05 08:59:05;;;;;;;5.43;3.07;;;5.20;97.10;;;;;;4996715;28;20026;-83
2023/04/05 09:01:40;;;;;;;4.57;3.28;;;5.30;96.60;;;;;;4995550;28;20117;-83
2023/04/05 09:04:12;;;;;;;6.50;3.10;;;5.30;96.70;;;;;;4996523;28;20031;-83
2023/04/05 09:06:38;;;;;;;5.73;3.00;;;5.40;95.80;;;;;;4996138;28;20030;-83
2023/04/05 09:09:07;;;;;;;3.90;2.97;;;5.40;96.10;;;;;;4995473;28;20105;-83
2023/04/05 09:11:34;;;;;;;5.83;3.27;;;5.40;95.60;;;;;;4996026;28;20042;-83
2023/04/05 09:14:04;;;;;;;6.87;3.20;;;5.50;95.30;;;;;;4995658;28;20033;-83
2023/04/05 09:16:36;;;;;;;7.30;3.73;;;5.50;94.60;;;;;;4996516;28;20023;-83
2023/04/05 09:19:01;;;;;;;5.97;3.25;;;5.50;95.10;;;;;;4995804;28;20510;-83
2023/04/05 09:21:28;;;;;;;5.83;3.40;;;5.60;94.30;;;;;;4996220;28;20030;-83
2023/04/05 09:23:54;;;;;;;5.23;3.03;;;5.60;94.30;;;;;;4995781;28;20897;-83
2023/04/05 09:26:22;;;;;;;4.50;2.73;;;5.70;94.40;;;;;;4996118;28;20110;-83
2023/04/05 09:28:47;;;;;;;5.37;3.10;;;5.70;93.60;;;;;;4994683;28;20026;-83
2023/04/05 09:31:48;;;;;;;3.80;3.10;;;5.80;94.10;;;;;;4995906;28;20527;-83
2023/04/05 09:34:20;;;;;;;4.80;3.30;;;5.80;92.40;;;;;;4955564;29;20131;-83
2023/04/05 09:36:46;;;;;;;5.63;3.15;;;5.80;93.00;;;;;;4988672;28;20365;-84
2023/04/05 09:39:12;;;;;;;4.10;2.83;;;5.80;93.50;;;;;;4994775;28;20092;-83
2023/04/05 09:41:38;;;;;;;3.73;3.03;;;5.90;93.00;;;;;;4994271;28;20049;-82
2023/04/05 09:44:03;;;;;;;5.73;3.30;;;6.00;93.00;;;;;;4995245;28;20030;-84
2023/04/05 09:46:32;;;;;;;8.77;3.43;;;6.10;93.00;;;;;;4994967;28;20472;-83
2023/04/05 09:48:59;;;;;;;6.70;3.17;;;6.20;92.70;;;;;;4994198;28;20031;-83
2023/04/05 09:51:32;;;;;;;5.80;3.20;;;6.20;92.60;;;;;;4995445;28;20463;-83
2023/04/05 09:53:59;;;;;;;3.77;3.00;;;6.20;92.40;;;;;;4995143;28;20147;-83
2023/04/05 09:56:26;;;;;;;4.20;2.90;;;6.20;92.30;;;;;;4994765;28;20034;-83
2023/04/05 09:58:52;;;;;;;5.50;3.27;;;6.20;92.20;;;;;;4993935;28;20023;-83
2023/04/05 10:01:19;;;;;;;6.10;3.30;;;6.30;91.50;;;;;;4994159;28;20037;-83
2023/04/05 10:03:46;;;;;;;7.93;3.37;;;6.30;91.40;;;;;;4993690;28;20085;-82
2023/04/05 10:06:14;;;;;;;5.07;3.27;;;6.40;91.10;;;;;;4994483;28;20030;-82
2023/04/05 10:08:40;;;;;;;4.43;3.00;;;6.40;89.70;;;;;;4993922;28;20026;-83
2023/04/05 10:11:05;;;;;;;4.47;3.07;;;6.50;87.90;;;;;;4995153;28;20560;-83
2023/04/05 10:13:32;;;;;;;5.40;3.00;;;6.50;86.00;;;;;;4993876;28;20041;-83
2023/04/05 10:16:00;;;;;;;7.07;3.07;;;6.50;86.80;;;;;;4993496;28;20026;-83
2023/04/05 10:18:40;;;;;;;4.63;3.03;;;6.60;87.40;;;;;;4993705;28;20026;-82
2023/04/05 10:21:10;;;;;;;5.33;3.10;;;6.60;87.60;;;;;;4995136;28;20030;-83
2023/04/05 10:23:38;;;;;;;6.00;2.77;;;6.60;88.30;;;;;;4994126;28;20391;-82
2023/04/05 10:26:15;;;;;;;3.83;2.90;;;6.70;88.90;;;;;;4995008;28;20525;-83
2023/04/05 10:28:49;;;;;;;5.23;3.20;;;6.70;87.90;;;;;;4993528;28;20034;-82
2023/04/05 10:31:27;;;;;;;9.10;3.43;;;6.80;90.00;;;;;;4994206;28;20098;-82
2023/04/05 10:34:11;;;;;;;8.10;4.97;;;6.80;86.70;;;;;;4994368;28;20034;-82
2023/04/05 10:36:56;;;;;;;5.50;3.50;;;6.90;85.30;;;;;;4995162;28;20033;-83
2023/04/05 10:39:40;;;;;;;4.03;2.90;;;6.90;86.00;;;;;;4993895;28;20042;-83
2023/04/05 10:42:31;;;;;;;7.63;3.23;;;6.90;85.30;;;;;;4993599;28;20043;-83
2023/04/05 10:45:03;;;;;;;4.97;3.10;;;7.00;86.80;;;;;;4994211;28;20026;-83
2023/04/05 10:47:31;;;;;;;5.13;3.25;;;7.00;83.60;;;;;;4993791;28;20129;-83
2023/04/05 10:50:02;;;;;;;5.80;3.60;;;7.10;83.40;;;;;;4993275;28;20080;-83
2023/04/05 10:52:27;;;;;;;5.97;3.10;;;7.10;82.30;;;;;;4994818;28;20030;-83
2023/04/05 10:54:55;;;;;;;6.30;3.33;;;7.10;81.80;;;;;;4993114;28;20026;-83
2023/04/05 10:57:22;;;;;;;4.73;3.17;;;7.10;81.90;;;;;;4993863;28;20030;-83
2023/04/05 10:59:48;;;;;;;4.77;3.20;;;7.20;82.00;;;;;;4990910;28;20037;-87
2023/04/05 11:02:15;;;;;;;7.00;3.07;;;7.20;83.10;;;;;;4986094;28;20038;-90
2023/04/05 11:04:41;;;;;;;8.10;3.30;;;7.20;83.10;;;;;;4993204;28;20030;-89
2023/04/05 11:07:18;;;;;;;8.47;3.33;;;7.40;88.90;;;;;;4992609;28;20030;-93
2023/04/05 11:10:04;;;;;;;4.17;3.03;;;7.40;80.50;;;;;;4992356;28;20039;-92
2023/04/05 11:12:56;;;;;;;6.82;3.35;;;7.40;79.60;;;;;;4978844;28;20121;-90
2023/04/05 11:15:24;;;;;;;5.47;3.20;;;7.50;79.00;;;;;;4993710;28;20031;-90
2023/04/05 11:18:16;;;;;;;5.05;3.45;;;7.50;79.10;;;;;;4992164;28;20121;-90
2023/04/05 11:20:55;;;;;;;4.28;2.97;;;7.50;80.00;;;;;;5001935;28;20042;-88
2023/04/05 11:23:23;;;;;;;5.30;3.15;;;7.60;81.30;;;;;;4993079;28;20019;-89
2023/04/05 11:25:56;;;;;;;5.28;3.17;;;7.80;84.20;;;;;;4992373;28;20026;-87
2023/04/05 11:28:29;;;;;;;5.85;3.25;;;7.80;79.40;;;;;;4981048;28;20046;-88
2023/04/05 11:30:55;;;;;;;4.72;3.13;;;7.90;79.00;;;;;;4994069;28;20080;-90
2023/04/05 11:33:57;;;;;;;5.13;2.95;;;7.90;78.40;;;;;;4997105;28;20037;-89
2023/04/05 11:36:44;;;;;;;5.15;3.17;;;8.00;78.00;;;;;;4983100;28;20022;-92
2023/04/05 11:39:20;;;;;;;5.60;2.90;;;8.00;77.00;;;;;;4997904;28;20498;-94
2023/04/05 11:42:05;;;;;;;4.70;3.08;;;8.20;84.00;;;;;;4991236;28;20483;-89
2023/04/05 11:44:42;;;;;;;5.97;3.10;;;8.30;84.00;;;;;;4990666;28;20468;-88
2023/04/05 11:47:09;;;;;;;5.55;3.03;;;8.30;81.40;;;;;;4993008;28;20516;-90
2023/04/05 11:49:35;;;;;;;4.65;2.97;;;8.30;78.20;;;;;;4996711;28;20026;-91
2023/04/05 11:52:13;;;;;;;5.45;2.90;;;8.30;75.60;;;;;;4993624;28;20248;-90
2023/04/05 11:54:44;;;;;;;6.05;3.30;;;8.40;74.60;;;;;;4997477;28;20030;-91
2023/04/05 11:57:17;;;;;;;4.23;3.07;;;8.50;76.70;;;;;;4997417;28;20028;-91
2023/04/05 11:59:43;;;;;;;4.85;3.13;;;8.50;76.90;;;;;;4993691;28;20110;-88
2023/04/05 12:02:09;;;;;;;5.30;3.38;;;8.60;74.00;;;;;;4992104;28;20114;-90
2023/04/05 12:04:35;;;;;;;5.30;3.17;;;8.60;73.60;;;;;;4995732;28;20110;-90
2023/04/05 12:07:18;;;;;;;5.72;3.30;;;8.70;73.30;;;;;;4995889;28;20027;-89
2023/04/05 12:10:01;;;;;;;5.10;3.63;;;8.80;72.90;;;;;;4996043;28;20080;-88
2023/04/05 12:12:31;;;;;;;5.95;3.40;;;9.00;73.30;;;;;;4983174;28;20084;-90
2023/04/05 12:15:01;;;;;;;6.38;3.45;;;9.10;73.20;;;;;;4996621;28;20078;-89
2023/04/05 12:17:40;;;;;;;4.65;2.90;;;9.20;70.10;;;;;;4996210;28;20030;-91
2023/04/05 12:20:07;;;;;;;3.95;3.00;;;9.40;75.60;;;;;;4995441;28;20117;-93
2023/04/05 12:22:33;;;;;;;4.82;3.33;;;9.60;75.90;;;;;;4995634;28;20026;-88
2023/04/05 12:24:59;;;;;;;5.28;3.30;;;9.80;74.60;;;;;;4984933;28;20058;-91
2023/04/05 12:27:25;;;;;;;6.55;3.10;;;10.00;70.00;;;;;;5010373;28;20065;-88
2023/04/05 12:30:21;;;;;;;4.43;2.90;;;10.10;69.40;;;;;;4995189;28;20054;-88
2023/04/05 12:32:53;;;;;;;6.38;3.45;;;10.30;66.80;;;;;;4977252;28;20059;-92
2023/04/05 12:35:31;;;;;;;4.85;3.45;;;10.50;64.60;;;;;;4996040;28;20117;-90
2023/04/05 12:37:58;;;;;;;7.45;3.25;;;10.60;64.30;;;;;;4996386;28;20022;-92
2023/04/05 12:40:23;;;;;;;5.00;3.05;;;10.70;63.70;;;;;;4997026;28;20026;-88
2023/04/05 12:42:50;;;;;;;6.03;2.92;;;10.90;64.40;;;;;;4994812;28;20483;-89
2023/04/05 12:45:17;;;;;;;5.68;3.08;;;11.10;63.40;;;;;;4996060;28;20031;-90
2023/04/05 12:47:56;;;;;;;3.55;2.92;;;11.30;62.60;;;;;;4996351;28;20030;-90
2023/04/05 12:50:27;;;;;;;4.50;2.88;;;11.50;62.50;;;;;;4977909;28;20372;-90
2023/04/05 12:52:54;;;;;;;6.28;3.08;;;11.70;61.90;;;;;;4983953;28;20034;-85
2023/04/05 12:55:20;;;;;;;6.35;2.92;;;11.90;58.70;;;;;;4996622;28;20046;-86
2023/04/05 12:57:52;;;;;;;5.50;3.47;;;11.90;58.70;;;;;;4995874;28;20023;-84
2023/04/05 13:00:20;;;;;;;4.40;3.00;;;11.90;57.80;;;;;;4987003;28;20032;-84
2023/04/05 13:02:53;;;;;;;5.40;2.90;;;12.10;57.80;;;;;;4990452;28;20053;-84
2023/04/05 13:05:20;;;;;;;5.18;2.92;;;12.30;58.50;;;;;;4989446;28;20030;-85